createdAt,value
2022-12-05T00:00:39.271Z,930.63
2022-12-05T00:01:39.301Z,930.64
2022-12-05T00:02:39.329Z,930.65
2022-12-05T00:03:39.267Z,930.65
2022-12-05T00:04:39.293Z,930.70
2022-12-05T00:05:39.215Z,930.71
2022-12-05T00:06:39.207Z,930.73
2022-12-05T00:07:39.273Z,930.73
2022-12-05T00:08:39.195Z,930.77
2022-12-05T00:09:39.189Z,930.75
2022-12-05T00:10:39.180Z,930.75
2022-12-05T00:11:39.173Z,930.76
2022-12-05T00:12:39.167Z,930.79
2022-12-05T00:13:39.161Z,930.80
2022-12-05T00:14:39.162Z,930.82
2022-12-05T00:15:39.148Z,930.83
2022-12-05T00:16:39.199Z,930.84
2022-12-05T00:17:39.132Z,930.88
2022-12-05T00:18:39.128Z,930.89
2022-12-05T00:19:39.118Z,930.92
2022-12-05T00:20:39.115Z,930.91
2022-12-05T00:21:39.105Z,930.89
2022-12-05T00:22:39.099Z,930.91
2022-12-05T00:23:39.093Z,930.94
2022-12-05T00:24:39.177Z,930.97
2022-12-05T00:25:39.106Z,930.94
2022-12-05T00:26:39.102Z,930.98
2022-12-05T00:27:39.066Z,930.97
2022-12-05T00:28:39.058Z,930.99
2022-12-05T00:29:39.076Z,931.02
2022-12-05T00:30:39.073Z,930.98
2022-12-05T00:31:39.186Z,930.99
2022-12-05T00:32:39.029Z,931.00
2022-12-05T00:33:39.025Z,931.03
2022-12-05T00:34:39.020Z,931.05
2022-12-05T00:35:39.034Z,931.02
2022-12-05T00:36:39.038Z,931.04
2022-12-05T00:37:39.025Z,931.04
2022-12-05T00:38:39.020Z,931.08
2022-12-05T00:39:39.007Z,931.10
2022-12-05T00:40:39.006Z,931.07
2022-12-05T00:41:39.001Z,931.10
2022-12-05T00:42:38.984Z,931.12
2022-12-05T00:43:39.081Z,931.12
2022-12-05T00:44:38.980Z,931.12
2022-12-05T00:45:38.967Z,931.08
2022-12-05T00:46:38.979Z,931.07
2022-12-05T00:47:38.927Z,931.10
2022-12-05T00:48:38.941Z,931.08
2022-12-05T00:49:38.944Z,931.08
2022-12-05T00:50:38.927Z,931.10
2022-12-05T00:51:38.932Z,931.07
2022-12-05T00:52:38.916Z,931.01
2022-12-05T00:53:39.013Z,931.05
2022-12-05T00:54:38.903Z,931.05
2022-12-05T00:55:38.896Z,931.07
2022-12-05T00:56:38.891Z,931.04
2022-12-05T00:57:40.046Z,931.06
2022-12-05T00:58:38.871Z,931.06
2022-12-05T00:59:38.869Z,931.05
2022-12-05T01:00:38.860Z,931.07
2022-12-05T01:01:38.947Z,931.06
2022-12-05T01:02:38.871Z,931.09
2022-12-05T01:03:38.908Z,931.08
2022-12-05T01:04:38.835Z,931.11
2022-12-05T01:05:38.802Z,931.15
2022-12-05T01:06:38.798Z,931.16
2022-12-05T01:07:38.848Z,931.16
2022-12-05T01:08:38.806Z,931.15
2022-12-05T01:09:38.773Z,931.18
2022-12-05T01:10:38.793Z,931.18
2022-12-05T01:11:41.461Z,931.18
2022-12-05T01:12:38.756Z,931.15
2022-12-05T01:13:38.747Z,931.16
2022-12-05T01:14:38.737Z,931.16
2022-12-05T01:15:38.733Z,931.19
2022-12-05T01:16:38.860Z,931.19
2022-12-05T01:17:38.719Z,931.18
2022-12-05T01:18:38.709Z,931.22
2022-12-05T01:19:38.729Z,931.24
2022-12-05T01:20:38.818Z,931.22
2022-12-05T01:21:38.731Z,931.23
2022-12-05T01:22:38.683Z,931.22
2022-12-05T01:23:38.676Z,931.25
2022-12-05T01:24:38.671Z,931.22
2022-12-05T01:25:38.664Z,931.23
2022-12-05T01:26:38.655Z,931.22
2022-12-05T01:27:38.648Z,931.24
2022-12-05T01:28:38.738Z,931.21
2022-12-05T01:29:38.636Z,931.19
2022-12-05T01:30:38.627Z,931.21
2022-12-05T01:31:38.808Z,931.18
2022-12-05T01:32:38.637Z,931.21
2022-12-05T01:33:38.634Z,931.18
2022-12-05T01:34:38.618Z,931.19
2022-12-05T01:35:38.616Z,931.18
2022-12-05T01:36:38.607Z,931.17
2022-12-05T01:37:38.604Z,931.17
2022-12-05T01:38:38.595Z,931.18
2022-12-05T01:39:38.587Z,931.16
2022-12-05T01:40:38.575Z,931.16
2022-12-05T01:41:38.579Z,931.16
2022-12-05T01:42:38.560Z,931.15
2022-12-05T01:43:38.568Z,931.17
2022-12-05T01:44:38.554Z,931.16
2022-12-05T01:45:38.591Z,931.15
2022-12-05T01:46:38.538Z,931.15
2022-12-05T01:47:38.626Z,931.10
2022-12-05T01:48:38.520Z,931.15
2022-12-05T01:49:38.518Z,931.12
2022-12-05T01:50:38.509Z,931.15
2022-12-05T01:51:38.509Z,931.17
2022-12-05T01:52:38.500Z,931.12
2022-12-05T01:53:38.487Z,931.12
2022-12-05T01:54:38.494Z,931.11
2022-12-05T01:55:38.475Z,931.13
2022-12-05T01:56:38.472Z,931.12
2022-12-05T01:57:38.463Z,931.19
2022-12-05T01:58:38.460Z,931.18
2022-12-05T01:59:38.453Z,931.17
2022-12-05T02:00:38.451Z,931.18
2022-12-05T02:01:38.537Z,931.21
2022-12-05T02:02:38.472Z,931.19
2022-12-05T02:03:38.421Z,931.23
2022-12-05T02:04:38.410Z,931.19
2022-12-05T02:05:38.404Z,931.18
2022-12-05T02:06:38.402Z,931.23
2022-12-05T02:07:38.421Z,931.17
2022-12-05T02:08:38.385Z,931.15
2022-12-05T02:09:38.384Z,931.13
2022-12-05T02:10:38.373Z,931.12
2022-12-05T02:11:38.363Z,931.07
2022-12-05T02:12:39.171Z,931.10
2022-12-05T02:13:38.351Z,931.08
2022-12-05T02:14:38.341Z,931.09
2022-12-05T02:15:38.343Z,931.04
2022-12-05T02:16:38.404Z,931.07
2022-12-05T02:17:38.325Z,931.04
2022-12-05T02:18:38.317Z,931.05
2022-12-05T02:19:38.311Z,931.02
2022-12-05T02:20:38.309Z,931.03
2022-12-05T02:21:38.296Z,931.02
2022-12-05T02:22:38.285Z,931.05
2022-12-05T02:23:38.295Z,931.02
2022-12-05T02:24:38.280Z,931.04
2022-12-05T02:25:38.276Z,931.01
2022-12-05T02:26:38.260Z,931.02
2022-12-05T02:27:38.354Z,930.97
2022-12-05T02:28:38.257Z,930.96
2022-12-05T02:29:38.246Z,930.94
2022-12-05T02:30:38.237Z,930.96
2022-12-05T02:31:38.299Z,930.95
2022-12-05T02:32:38.227Z,930.95
2022-12-05T02:33:38.211Z,930.93
2022-12-05T02:34:38.209Z,930.91
2022-12-05T02:35:38.202Z,930.88
2022-12-05T02:36:38.204Z,930.89
2022-12-05T02:37:38.292Z,930.92
2022-12-05T02:38:38.180Z,930.91
2022-12-05T02:39:38.168Z,930.85
2022-12-05T02:40:38.169Z,930.90
2022-12-05T02:41:38.164Z,930.89
2022-12-05T02:42:38.154Z,930.84
2022-12-05T02:43:38.145Z,930.85
2022-12-05T02:44:38.140Z,930.80
2022-12-05T02:45:38.185Z,930.79
2022-12-05T02:46:38.122Z,930.82
2022-12-05T02:47:38.217Z,930.80
2022-12-05T02:48:38.109Z,930.79
2022-12-05T02:49:38.112Z,930.77
2022-12-05T02:50:38.096Z,930.77
2022-12-05T02:51:38.095Z,930.77
2022-12-05T02:52:38.085Z,930.76
2022-12-05T02:53:38.073Z,930.72
2022-12-05T02:54:38.068Z,930.71
2022-12-05T02:55:38.071Z,930.72
2022-12-05T02:56:38.053Z,930.71
2022-12-05T02:57:38.155Z,930.70
2022-12-05T02:58:38.039Z,930.68
2022-12-05T02:59:38.033Z,930.65
2022-12-05T03:00:38.026Z,930.61
2022-12-05T03:01:38.132Z,930.66
2022-12-05T03:02:38.015Z,930.63
2022-12-05T03:03:38.012Z,930.60
2022-12-05T03:04:38.029Z,930.57
2022-12-05T03:05:37.996Z,930.60
2022-12-05T03:06:37.991Z,930.55
2022-12-05T03:07:38.106Z,930.55
2022-12-05T03:08:37.969Z,930.53
2022-12-05T03:09:37.967Z,930.50
2022-12-05T03:10:37.956Z,930.51
2022-12-05T03:11:37.952Z,930.49
2022-12-05T03:12:37.942Z,930.51
2022-12-05T03:13:37.938Z,930.50
2022-12-05T03:14:37.935Z,930.47
2022-12-05T03:15:37.923Z,930.47
2022-12-05T03:16:38.006Z,930.46
2022-12-05T03:17:38.014Z,930.40
2022-12-05T03:18:37.910Z,930.38
2022-12-05T03:19:37.900Z,930.37
2022-12-05T03:20:37.886Z,930.34
2022-12-05T03:21:37.883Z,930.35
2022-12-05T03:22:37.872Z,930.32
2022-12-05T03:23:37.867Z,930.32
2022-12-05T03:24:37.867Z,930.28
2022-12-05T03:25:37.857Z,930.27
2022-12-05T03:26:37.845Z,930.27
2022-12-05T03:27:37.843Z,930.22
2022-12-05T03:28:37.935Z,930.22
2022-12-05T03:29:37.823Z,930.21
2022-12-05T03:30:37.893Z,930.23
2022-12-05T03:31:37.809Z,930.19
2022-12-05T03:32:37.804Z,930.16
2022-12-05T03:33:37.803Z,930.18
2022-12-05T03:34:37.896Z,930.14
2022-12-05T03:35:37.788Z,930.14
2022-12-05T03:36:37.778Z,930.12
2022-12-05T03:37:37.771Z,930.13
2022-12-05T03:38:37.762Z,930.10
2022-12-05T03:39:37.766Z,930.11
2022-12-05T03:40:37.753Z,930.10
2022-12-05T03:41:37.738Z,930.08
2022-12-05T03:42:37.737Z,930.07
2022-12-05T03:43:37.725Z,930.04
2022-12-05T03:44:37.721Z,930.04
2022-12-05T03:45:37.772Z,930.02
2022-12-05T03:46:37.816Z,930.02
2022-12-05T03:47:37.697Z,930.06
2022-12-05T03:48:37.687Z,930.04
2022-12-05T03:49:37.689Z,930.05
2022-12-05T03:50:37.684Z,930.02
2022-12-05T03:51:37.676Z,930.03
2022-12-05T03:52:56.875Z,930.04
2022-12-05T03:53:37.660Z,930.01
2022-12-05T03:54:37.651Z,929.99
2022-12-05T03:55:37.642Z,930.06
2022-12-05T03:56:37.629Z,929.99
2022-12-05T03:57:37.630Z,929.97
2022-12-05T03:58:37.619Z,929.98
2022-12-05T03:59:37.616Z,929.99
2022-12-05T04:00:37.605Z,929.99
2022-12-05T04:01:37.652Z,929.99
2022-12-05T04:02:37.588Z,929.94
2022-12-05T04:03:37.633Z,929.97
2022-12-05T04:04:37.577Z,929.91
2022-12-05T04:05:37.571Z,929.88
2022-12-05T04:06:37.564Z,929.86
2022-12-05T04:07:37.633Z,929.86
2022-12-05T04:08:37.557Z,929.85
2022-12-05T04:09:37.547Z,929.86
2022-12-05T04:10:37.637Z,929.84
2022-12-05T04:11:37.525Z,929.85
2022-12-05T04:12:37.519Z,929.85
2022-12-05T04:13:37.513Z,929.83
2022-12-05T04:14:37.505Z,929.84
2022-12-05T04:15:37.542Z,929.85
2022-12-05T04:16:37.502Z,929.85
2022-12-05T04:17:37.493Z,929.85
2022-12-05T04:18:37.480Z,929.86
2022-12-05T04:19:37.474Z,929.82
2022-12-05T04:20:37.564Z,929.81
2022-12-05T04:21:37.468Z,929.78
2022-12-05T04:22:37.447Z,929.77
2022-12-05T04:23:37.443Z,929.79
2022-12-05T04:24:37.433Z,929.78
2022-12-05T04:25:37.430Z,929.75
2022-12-05T04:26:37.419Z,929.76
2022-12-05T04:27:37.412Z,929.75
2022-12-05T04:28:37.414Z,929.74
2022-12-05T04:29:37.401Z,929.73
2022-12-05T04:30:37.489Z,929.69
2022-12-05T04:31:37.408Z,929.70
2022-12-05T04:32:37.380Z,929.67
2022-12-05T04:33:37.371Z,929.67
2022-12-05T04:34:37.364Z,929.67
2022-12-05T04:35:37.353Z,929.66
2022-12-05T04:36:37.352Z,929.64
2022-12-05T04:37:37.341Z,929.63
2022-12-05T04:38:37.335Z,929.62
2022-12-05T04:39:37.329Z,929.62
2022-12-05T04:40:38.822Z,929.59
2022-12-05T04:41:37.320Z,929.56
2022-12-05T04:42:37.302Z,929.56
2022-12-05T04:43:37.297Z,929.56
2022-12-05T04:44:37.289Z,929.56
2022-12-05T04:45:37.294Z,929.55
2022-12-05T04:46:37.346Z,929.52
2022-12-05T04:47:37.268Z,929.52
2022-12-05T04:48:37.261Z,929.51
2022-12-05T04:49:37.249Z,929.49
2022-12-05T04:50:37.251Z,929.49
2022-12-05T04:51:37.242Z,929.52
2022-12-05T04:52:37.240Z,929.50
2022-12-05T04:53:37.228Z,929.51
2022-12-05T04:54:37.217Z,929.51
2022-12-05T04:55:37.208Z,929.50
2022-12-05T04:56:37.306Z,929.50
2022-12-05T04:57:37.193Z,929.51
2022-12-05T04:58:37.192Z,929.51
2022-12-05T04:59:37.183Z,929.50
2022-12-05T05:00:37.173Z,929.47
2022-12-05T05:01:37.246Z,929.47
2022-12-05T05:02:37.197Z,929.44
2022-12-05T05:03:37.147Z,929.45
2022-12-05T05:04:37.151Z,929.43
2022-12-05T05:05:37.141Z,929.42
2022-12-05T05:06:37.134Z,929.40
2022-12-05T05:07:37.181Z,929.43
2022-12-05T05:08:37.113Z,929.45
2022-12-05T05:09:37.106Z,929.45
2022-12-05T05:10:37.102Z,929.44
2022-12-05T05:11:37.193Z,929.42
2022-12-05T05:12:37.091Z,929.45
2022-12-05T05:13:37.079Z,929.43
2022-12-05T05:14:37.083Z,929.42
2022-12-05T05:15:37.088Z,929.43
2022-12-05T05:16:37.135Z,929.43
2022-12-05T05:17:37.051Z,929.43
2022-12-05T05:18:37.049Z,929.46
2022-12-05T05:19:37.040Z,929.42
2022-12-05T05:20:37.034Z,929.43
2022-12-05T05:21:37.116Z,929.44
2022-12-05T05:22:37.016Z,929.43
2022-12-05T05:23:37.009Z,929.44
2022-12-05T05:24:37.009Z,929.43
2022-12-05T05:25:36.995Z,929.43
2022-12-05T05:26:36.985Z,929.43
2022-12-05T05:27:36.974Z,929.47
2022-12-05T05:28:36.975Z,929.46
2022-12-05T05:29:36.974Z,929.44
2022-12-05T05:30:36.956Z,929.46
2022-12-05T05:31:36.994Z,929.46
2022-12-05T05:32:36.942Z,929.46
2022-12-05T05:33:36.932Z,929.45
2022-12-05T05:34:36.925Z,929.48
2022-12-05T05:35:37.033Z,929.48
2022-12-05T05:36:36.911Z,929.44
2022-12-05T05:37:37.006Z,929.46
2022-12-05T05:38:36.896Z,929.43
2022-12-05T05:39:36.898Z,929.47
2022-12-05T05:40:36.886Z,929.47
2022-12-05T05:41:36.871Z,929.47
2022-12-05T05:42:36.869Z,929.47
2022-12-05T05:43:36.858Z,929.49
2022-12-05T05:44:36.847Z,929.48
2022-12-05T05:45:36.851Z,929.48
2022-12-05T05:46:36.893Z,929.46
2022-12-05T05:47:36.833Z,929.52
2022-12-05T05:48:36.825Z,929.43
2022-12-05T05:49:36.814Z,929.46
2022-12-05T05:50:36.816Z,929.47
2022-12-05T05:51:36.802Z,929.50
2022-12-05T05:52:36.795Z,929.51
2022-12-05T05:53:36.788Z,929.50
2022-12-05T05:54:36.777Z,929.42
2022-12-05T05:55:36.781Z,929.45
2022-12-05T05:56:36.766Z,929.42
2022-12-05T05:57:36.760Z,929.44
2022-12-05T05:58:36.844Z,929.43
2022-12-05T05:59:36.740Z,929.42
2022-12-05T06:00:36.734Z,929.47
2022-12-05T06:01:36.723Z,929.45
2022-12-05T06:02:36.892Z,929.47
2022-12-05T06:03:36.857Z,929.43
2022-12-05T06:04:36.700Z,929.47
2022-12-05T06:05:36.699Z,929.43
2022-12-05T06:06:36.686Z,929.47
2022-12-05T06:07:36.712Z,929.45
2022-12-05T06:08:36.675Z,929.42
2022-12-05T06:09:36.670Z,929.44
2022-12-05T06:10:36.662Z,929.47
2022-12-05T06:11:36.648Z,929.43
2022-12-05T06:12:36.644Z,929.45
2022-12-05T06:13:36.634Z,929.46
2022-12-05T06:14:36.735Z,929.46
2022-12-05T06:15:36.650Z,929.47
2022-12-05T06:16:36.680Z,929.43
2022-12-05T06:17:36.615Z,929.43
2022-12-05T06:18:36.596Z,929.47
2022-12-05T06:19:36.592Z,929.46
2022-12-05T06:20:36.588Z,929.44
2022-12-05T06:21:36.578Z,929.47
2022-12-05T06:22:36.570Z,929.47
2022-12-05T06:23:36.563Z,929.46
2022-12-05T06:24:36.563Z,929.46
2022-12-05T06:25:36.546Z,929.44
2022-12-05T06:26:36.535Z,929.42
2022-12-05T06:27:36.533Z,929.44
2022-12-05T06:28:36.532Z,929.46
2022-12-05T06:29:36.515Z,929.42
2022-12-05T06:30:36.609Z,929.45
2022-12-05T06:31:36.558Z,929.40
2022-12-05T06:32:36.499Z,929.42
2022-12-05T06:33:36.489Z,929.41
2022-12-05T06:34:36.482Z,929.39
2022-12-05T06:35:36.475Z,929.39
2022-12-05T06:36:36.465Z,929.36
2022-12-05T06:37:36.459Z,929.35
2022-12-05T06:38:41.608Z,929.36
2022-12-05T06:39:36.442Z,929.36
2022-12-05T06:40:36.437Z,929.37
2022-12-05T06:41:36.427Z,929.38
2022-12-05T06:42:36.423Z,929.41
2022-12-05T06:43:36.411Z,929.40
2022-12-05T06:44:36.408Z,929.40
2022-12-05T06:45:36.668Z,929.38
2022-12-05T06:46:36.390Z,929.40
2022-12-05T06:47:36.381Z,929.40
2022-12-05T06:48:36.381Z,929.41
2022-12-05T06:49:38.044Z,929.47
2022-12-05T06:50:36.363Z,929.42
2022-12-05T06:51:36.353Z,929.46
2022-12-05T06:52:36.346Z,929.43
2022-12-05T06:53:36.351Z,929.48
2022-12-05T06:54:36.333Z,929.48
2022-12-05T06:55:36.421Z,929.46
2022-12-05T06:56:36.316Z,929.45
2022-12-05T06:57:36.318Z,929.48
2022-12-05T06:58:36.304Z,929.50
2022-12-05T06:59:36.293Z,929.48
2022-12-05T07:00:36.292Z,929.50
2022-12-05T07:01:36.335Z,929.48
2022-12-05T07:02:36.316Z,929.53
2022-12-05T07:03:36.262Z,929.49
2022-12-05T07:04:36.259Z,929.53
2022-12-05T07:05:36.255Z,929.54
2022-12-05T07:06:36.246Z,929.53
2022-12-05T07:07:36.258Z,929.51
2022-12-05T07:08:36.227Z,929.52
2022-12-05T07:09:36.220Z,929.50
2022-12-05T07:10:36.311Z,929.46
2022-12-05T07:11:36.204Z,929.48
2022-12-05T07:12:36.199Z,929.47
2022-12-05T07:13:36.184Z,929.47
2022-12-05T07:14:51.266Z,929.45
2022-12-05T07:15:36.172Z,929.44
2022-12-05T07:16:36.234Z,929.43
2022-12-05T07:17:36.155Z,929.41
2022-12-05T07:18:36.154Z,929.37
2022-12-05T07:19:36.145Z,929.41
2022-12-05T07:21:10.306Z,929.42
2022-12-05T07:21:36.122Z,929.42
2022-12-05T07:22:36.121Z,929.38
2022-12-05T07:23:36.111Z,929.42
2022-12-05T07:24:36.100Z,929.39
2022-12-05T07:25:36.096Z,929.39
2022-12-05T07:26:36.089Z,929.38
2022-12-05T07:27:36.086Z,929.37
2022-12-05T07:28:36.075Z,929.37
2022-12-05T07:29:36.068Z,929.38
2022-12-05T07:30:36.158Z,929.34
2022-12-05T07:31:36.114Z,929.38
2022-12-05T07:32:36.043Z,929.37
2022-12-05T07:33:36.038Z,929.35
2022-12-05T07:34:36.029Z,929.37
2022-12-05T07:35:36.019Z,929.38
2022-12-05T07:36:36.010Z,929.36
2022-12-05T07:37:36.002Z,929.36
2022-12-05T07:38:36.001Z,929.34
2022-12-05T07:39:35.987Z,929.38
2022-12-05T07:40:35.981Z,929.39
2022-12-05T07:41:35.973Z,929.42
2022-12-05T07:42:35.971Z,929.45
2022-12-05T07:43:35.957Z,929.44
2022-12-05T07:44:35.958Z,929.46
2022-12-05T07:45:35.984Z,929.49
2022-12-05T07:46:36.034Z,929.48
2022-12-05T07:47:36.000Z,929.48
2022-12-05T07:48:35.934Z,929.48
2022-12-05T07:49:35.914Z,929.49
2022-12-05T07:50:35.905Z,929.49
2022-12-05T07:51:35.906Z,929.50
2022-12-05T07:52:35.895Z,929.48
2022-12-05T07:53:35.887Z,929.50
2022-12-05T07:54:35.873Z,929.51
2022-12-05T07:55:35.866Z,929.53
2022-12-05T07:56:35.862Z,929.54
2022-12-05T07:57:35.854Z,929.56
2022-12-05T07:58:35.849Z,929.59
2022-12-05T07:59:35.840Z,929.63
2022-12-05T08:00:35.832Z,929.62
2022-12-05T08:01:35.863Z,929.63
2022-12-05T08:02:40.402Z,929.64
2022-12-05T08:03:35.802Z,929.69
2022-12-05T08:04:35.794Z,929.71
2022-12-05T08:05:35.790Z,929.73
2022-12-05T08:06:35.786Z,929.76
2022-12-05T08:07:35.800Z,929.77
2022-12-05T08:08:35.770Z,929.79
2022-12-05T08:09:35.762Z,929.82
2022-12-05T08:10:35.765Z,929.83
2022-12-05T08:11:35.748Z,929.88
2022-12-05T08:12:35.740Z,929.83
2022-12-05T08:13:35.734Z,929.84
2022-12-05T08:14:35.726Z,929.85
2022-12-05T08:15:35.721Z,929.84
2022-12-05T08:16:35.756Z,929.87
2022-12-05T08:17:35.703Z,929.89
2022-12-05T08:18:35.692Z,929.91
2022-12-05T08:19:35.690Z,929.93
2022-12-05T08:20:35.680Z,929.93
2022-12-05T08:21:35.666Z,929.95
2022-12-05T08:22:35.662Z,929.93
2022-12-05T08:23:35.657Z,929.95
2022-12-05T08:24:35.653Z,929.95
2022-12-05T08:25:35.648Z,929.99
2022-12-05T08:26:35.633Z,930.02
2022-12-05T08:27:35.624Z,930.02
2022-12-05T08:28:35.617Z,930.01
2022-12-05T08:29:35.608Z,930.00
2022-12-05T08:30:35.675Z,930.00
2022-12-05T08:31:35.598Z,930.03
2022-12-05T08:32:35.594Z,930.01
2022-12-05T08:33:35.583Z,930.06
2022-12-05T08:34:35.575Z,930.05
2022-12-05T08:35:35.563Z,930.01
2022-12-05T08:36:35.561Z,930.00
2022-12-05T08:37:35.550Z,930.03
2022-12-05T08:38:35.543Z,930.01
2022-12-05T08:39:38.623Z,930.00
2022-12-05T08:40:35.531Z,930.00
2022-12-05T08:41:35.517Z,930.03
2022-12-05T08:42:35.510Z,930.05
2022-12-05T08:43:35.508Z,930.08
2022-12-05T08:44:35.495Z,930.05
2022-12-05T08:45:35.494Z,930.10
2022-12-05T08:46:35.519Z,930.15
2022-12-05T08:47:35.475Z,930.18
2022-12-05T08:48:35.471Z,930.20
2022-12-05T08:49:35.461Z,930.22
2022-12-05T08:50:35.459Z,930.23
2022-12-05T08:51:35.443Z,930.22
2022-12-05T08:52:35.448Z,930.25
2022-12-05T08:53:39.537Z,930.31
2022-12-05T08:54:35.422Z,930.33
2022-12-05T08:55:35.426Z,930.30
2022-12-05T08:56:35.405Z,930.32
2022-12-05T08:57:35.402Z,930.33
2022-12-05T08:58:35.497Z,930.35
2022-12-05T08:59:35.387Z,930.36
2022-12-05T09:00:35.383Z,930.44
2022-12-05T09:01:35.425Z,930.41
2022-12-05T09:02:35.429Z,930.43
2022-12-05T09:03:35.356Z,930.54
2022-12-05T09:04:35.352Z,930.48
2022-12-05T09:05:35.340Z,930.51
2022-12-05T09:06:35.341Z,930.55
2022-12-05T09:07:35.387Z,930.47
2022-12-05T09:08:35.318Z,930.52
2022-12-05T09:09:35.310Z,930.54
2022-12-05T09:10:35.312Z,930.52
2022-12-05T09:11:35.302Z,930.51
2022-12-05T09:12:35.289Z,930.57
2022-12-05T09:13:35.279Z,930.53
2022-12-05T09:14:35.274Z,930.54
2022-12-05T09:15:35.298Z,930.54
2022-12-05T09:16:37.898Z,930.53
2022-12-05T09:17:35.258Z,930.54
2022-12-05T09:18:35.241Z,930.60
2022-12-05T09:19:35.242Z,930.61
2022-12-05T09:20:35.229Z,930.61
2022-12-05T09:21:35.226Z,930.63
2022-12-05T09:22:35.219Z,930.66
2022-12-05T09:23:35.208Z,930.67
2022-12-05T09:24:35.206Z,930.67
2022-12-05T09:25:35.202Z,930.68
2022-12-05T09:26:35.198Z,930.70
2022-12-05T09:27:35.192Z,930.70
2022-12-05T09:28:35.283Z,930.69
2022-12-05T09:29:35.167Z,930.68
2022-12-05T09:30:35.192Z,930.74
2022-12-05T09:31:35.199Z,930.75
2022-12-05T09:32:35.153Z,930.70
2022-12-05T09:33:35.142Z,930.74
2022-12-05T09:34:35.127Z,930.72
2022-12-05T09:35:35.128Z,930.74
2022-12-05T09:36:35.119Z,930.75
2022-12-05T09:37:39.645Z,930.76
2022-12-05T09:38:35.204Z,930.76
2022-12-05T09:39:35.090Z,930.78
2022-12-05T09:40:35.090Z,930.76
2022-12-05T09:41:35.087Z,930.78
2022-12-05T09:42:35.069Z,930.76
2022-12-05T09:43:35.063Z,930.75
2022-12-05T09:44:35.069Z,930.77
2022-12-05T09:45:35.048Z,930.78
2022-12-05T09:46:35.880Z,930.79
2022-12-05T09:47:35.043Z,930.81
2022-12-05T09:48:35.027Z,930.83
2022-12-05T09:49:35.119Z,930.83
2022-12-05T09:50:35.017Z,930.86
2022-12-05T09:51:35.005Z,930.83
2022-12-05T09:52:35.000Z,930.86
2022-12-05T09:53:35.006Z,930.88
2022-12-05T09:54:34.991Z,930.83
2022-12-05T09:55:34.977Z,930.84
2022-12-05T09:56:34.969Z,930.88
2022-12-05T09:57:34.960Z,930.84
2022-12-05T09:58:34.962Z,930.86
2022-12-05T09:59:34.951Z,930.89
2022-12-05T10:00:34.949Z,930.91
2022-12-05T10:01:34.992Z,930.93
2022-12-05T10:02:34.929Z,930.92
2022-12-05T10:03:34.931Z,930.93
2022-12-05T10:04:35.042Z,930.96
2022-12-05T10:05:34.909Z,930.94
2022-12-05T10:06:34.896Z,930.97
2022-12-05T10:07:34.946Z,930.99
2022-12-05T10:08:34.887Z,930.98
2022-12-05T10:09:34.891Z,931.01
2022-12-05T10:10:34.871Z,931.02
2022-12-05T10:11:34.862Z,931.06
2022-12-05T10:12:34.855Z,931.08
2022-12-05T10:13:34.854Z,931.06
2022-12-05T10:14:34.849Z,931.05
2022-12-05T10:15:35.020Z,931.06
2022-12-05T10:16:34.942Z,931.09
2022-12-05T10:17:34.834Z,931.12
2022-12-05T10:18:34.820Z,931.13
2022-12-05T10:19:34.810Z,931.10
2022-12-05T10:20:34.799Z,931.14
2022-12-05T10:21:34.815Z,931.16
2022-12-05T10:22:34.796Z,931.19
2022-12-05T10:23:56.425Z,931.22
2022-12-05T10:24:34.782Z,931.23
2022-12-05T10:25:34.770Z,931.25
2022-12-05T10:26:34.762Z,931.26
2022-12-05T10:27:39.803Z,931.25
2022-12-05T10:28:34.748Z,931.32
2022-12-05T10:29:34.755Z,931.29
2022-12-05T10:30:34.740Z,931.32
2022-12-05T10:31:34.832Z,931.31
2022-12-05T10:32:34.722Z,931.35
2022-12-05T10:33:34.717Z,931.34
2022-12-05T10:34:34.712Z,931.38
2022-12-05T10:35:34.715Z,931.37
2022-12-05T10:36:34.695Z,931.39
2022-12-05T10:37:34.693Z,931.37
2022-12-05T10:38:34.692Z,931.41
2022-12-05T10:39:34.677Z,931.38
2022-12-05T10:40:34.666Z,931.39
2022-12-05T10:41:34.668Z,931.43
2022-12-05T10:42:34.660Z,931.41
2022-12-05T10:43:34.652Z,931.43
2022-12-05T10:44:34.644Z,931.47
2022-12-05T10:45:34.640Z,931.46
2022-12-05T10:46:34.728Z,931.44
2022-12-05T10:47:34.621Z,931.48
2022-12-05T10:48:34.623Z,931.51
2022-12-05T10:49:34.612Z,931.50
2022-12-05T10:50:34.617Z,931.53
2022-12-05T10:51:37.726Z,931.56
2022-12-05T10:52:34.590Z,931.58
2022-12-05T10:53:34.584Z,931.56
2022-12-05T10:54:34.581Z,931.55
2022-12-05T10:55:34.577Z,931.58
2022-12-05T10:56:34.575Z,931.59
2022-12-05T10:57:34.562Z,931.55
2022-12-05T10:58:34.561Z,931.56
2022-12-05T10:59:34.546Z,931.62
2022-12-05T11:00:34.545Z,931.60
2022-12-05T11:01:34.616Z,931.57
2022-12-05T11:02:34.524Z,931.63
2022-12-05T11:03:34.527Z,931.64
2022-12-05T11:04:34.597Z,931.62
2022-12-05T11:05:34.621Z,931.65
2022-12-05T11:06:34.503Z,931.68
2022-12-05T11:07:34.597Z,931.67
2022-12-05T11:09:03.232Z,931.70
2022-12-05T11:09:34.486Z,931.73
2022-12-05T11:10:34.473Z,931.71
2022-12-05T11:11:34.472Z,931.74
2022-12-05T11:12:34.461Z,931.75
2022-12-05T11:13:34.455Z,931.75
2022-12-05T11:14:34.453Z,931.77
2022-12-05T11:15:34.448Z,931.79
2022-12-05T11:16:34.496Z,931.82
2022-12-05T11:17:34.428Z,931.83
2022-12-05T11:18:34.419Z,931.86
2022-12-05T11:19:34.419Z,931.83
2022-12-05T11:20:34.420Z,931.89
2022-12-05T11:21:34.407Z,931.86
2022-12-05T11:22:34.398Z,931.87
2022-12-05T11:23:34.400Z,931.91
2022-12-05T11:24:34.380Z,931.89
2022-12-05T11:25:34.378Z,931.89
2022-12-05T11:26:34.374Z,931.93
2022-12-05T11:27:34.365Z,931.97
2022-12-05T11:28:34.359Z,932.00
2022-12-05T11:29:34.350Z,932.01
2022-12-05T11:30:34.419Z,932.02
2022-12-05T11:31:34.377Z,932.01
2022-12-05T11:32:34.343Z,932.09
2022-12-05T11:33:34.322Z,932.07
2022-12-05T11:34:34.322Z,932.06
2022-12-05T11:35:34.309Z,932.04
2022-12-05T11:36:34.399Z,932.04
2022-12-05T11:37:34.294Z,932.04
2022-12-05T11:38:34.292Z,932.07
2022-12-05T11:39:34.288Z,932.06
2022-12-05T11:40:38.473Z,932.04
2022-12-05T11:41:34.274Z,932.10
2022-12-05T11:42:34.259Z,932.10
2022-12-05T11:43:34.262Z,932.09
2022-12-05T11:44:34.251Z,932.13
2022-12-05T11:45:34.245Z,932.12
2022-12-05T11:46:34.260Z,932.15
2022-12-05T11:47:34.233Z,932.11
2022-12-05T11:48:34.231Z,932.16
2022-12-05T11:49:34.216Z,932.15
2022-12-05T11:50:34.211Z,932.20
2022-12-05T11:51:34.210Z,932.12
2022-12-05T11:52:39.039Z,932.13
2022-12-05T11:53:34.198Z,932.13
2022-12-05T11:55:03.887Z,932.12
2022-12-05T11:55:34.187Z,932.11
2022-12-05T11:56:34.174Z,932.11
2022-12-05T11:57:34.171Z,932.10
2022-12-05T11:58:34.159Z,932.10
2022-12-05T11:59:34.164Z,932.10
2022-12-05T12:00:34.153Z,932.09
2022-12-05T12:01:34.164Z,932.06
2022-12-05T12:02:34.227Z,932.04
2022-12-05T12:03:34.283Z,932.03
2022-12-05T12:04:34.127Z,932.04
2022-12-05T12:05:34.127Z,932.03
2022-12-05T12:06:34.107Z,932.10
2022-12-05T12:07:34.125Z,932.05
2022-12-05T12:08:34.105Z,932.08
2022-12-05T12:09:34.096Z,932.10
2022-12-05T12:10:34.088Z,932.07
2022-12-05T12:11:34.080Z,932.07
2022-12-05T12:12:34.075Z,932.06
2022-12-05T12:13:34.075Z,932.10
2022-12-05T12:14:34.068Z,932.09
2022-12-05T12:15:34.063Z,932.14
2022-12-05T12:16:34.075Z,932.15
2022-12-05T12:17:34.056Z,932.11
2022-12-05T12:18:34.039Z,932.10
2022-12-05T12:19:34.044Z,932.06
2022-12-05T12:20:34.064Z,932.05
2022-12-05T12:21:38.376Z,932.11
2022-12-05T12:22:34.015Z,932.06
2022-12-05T12:23:34.016Z,932.06
2022-12-05T12:24:34.009Z,932.04
2022-12-05T12:25:34.006Z,932.08
2022-12-05T12:26:33.991Z,932.05
2022-12-05T12:27:33.994Z,932.08
2022-12-05T12:28:33.998Z,932.08